createdAt,value
2022-11-10T00:00:42.193Z,8.95
2022-11-10T00:06:04.055Z,8.92
2022-11-10T00:11:24.152Z,8.86
2022-11-10T00:17:04.213Z,8.83
2022-11-10T00:22:26.130Z,8.69
2022-11-10T00:27:46.721Z,8.59
2022-11-10T00:33:07.569Z,8.51
2022-11-10T00:38:27.968Z,8.47
2022-11-10T00:43:48.348Z,8.36
2022-11-10T00:49:08.791Z,8.35
2022-11-10T00:54:28.662Z,8.31
2022-11-10T00:59:48.646Z,8.26
2022-11-10T01:05:09.275Z,8.22
2022-11-10T01:10:29.806Z,8.19
2022-11-10T01:15:49.660Z,8.12
2022-11-10T01:21:10.090Z,8.11
2022-11-10T01:26:30.342Z,8.05
2022-11-10T01:31:50.686Z,7.99
2022-11-10T01:37:12.195Z,7.96
2022-11-10T01:42:52.821Z,7.91
2022-11-10T01:48:18.921Z,7.85
2022-11-10T01:53:44.086Z,7.82
2022-11-10T01:59:10.716Z,7.76
2022-11-10T02:04:31.126Z,7.71
2022-11-10T02:09:52.672Z,7.76
2022-11-10T02:15:14.926Z,7.72
2022-11-10T02:20:34.963Z,7.72
2022-11-10T02:25:55.270Z,7.74
2022-11-10T02:31:15.742Z,7.78
2022-11-10T02:36:36.348Z,7.77
2022-11-10T02:41:56.566Z,7.79
2022-11-10T02:47:16.423Z,7.78
2022-11-10T02:52:36.438Z,7.78
2022-11-10T02:57:56.989Z,7.73
2022-11-10T03:03:16.962Z,7.75
2022-11-10T03:08:38.801Z,7.71
2022-11-10T03:14:01.899Z,7.72
2022-11-10T03:19:22.571Z,7.70
2022-11-10T03:24:42.816Z,7.69
2022-11-10T03:30:04.676Z,7.66
2022-11-10T03:35:24.838Z,7.71
2022-11-10T03:41:17.049Z,7.67
2022-11-10T03:46:24.743Z,7.66
2022-11-10T03:51:44.928Z,7.64
2022-11-10T03:57:05.247Z,7.61
2022-11-10T04:02:25.596Z,7.61
2022-11-10T04:08:04.348Z,7.61
2022-11-10T04:13:43.528Z,7.55
2022-11-10T04:19:03.995Z,7.52
2022-11-10T04:24:24.017Z,7.52
2022-11-10T04:29:43.928Z,7.52
2022-11-10T04:35:04.182Z,7.50
2022-11-10T04:40:24.854Z,7.58
2022-11-10T04:45:44.989Z,7.61
2022-11-10T04:51:06.851Z,7.62
2022-11-10T04:56:27.525Z,7.67
2022-11-10T05:01:48.082Z,7.66
2022-11-10T05:07:08.256Z,7.67
2022-11-10T05:12:28.398Z,7.69
2022-11-10T05:17:50.071Z,7.66
2022-11-10T05:23:29.178Z,7.64
2022-11-10T05:28:49.064Z,7.64
2022-11-10T05:34:09.057Z,7.60
2022-11-10T05:39:29.271Z,7.67
2022-11-10T05:44:49.785Z,7.73
2022-11-10T05:50:10.139Z,7.77
2022-11-10T05:55:30.634Z,7.82
2022-11-10T06:00:51.077Z,7.89
2022-11-10T06:06:11.332Z,7.98
2022-11-10T06:11:31.660Z,8.05
2022-11-10T06:16:51.747Z,8.07
2022-11-10T06:22:11.751Z,8.14
2022-11-10T06:27:31.931Z,8.20
2022-11-10T06:32:52.360Z,8.28
2022-11-10T06:38:12.832Z,8.35
2022-11-10T06:43:33.101Z,8.49
2022-11-10T06:48:53.354Z,8.49
2022-11-10T06:54:13.395Z,8.58
2022-11-10T06:59:33.434Z,8.61
2022-11-10T07:04:53.483Z,8.64
2022-11-10T07:10:14.738Z,8.69
2022-11-10T07:15:34.752Z,8.72
2022-11-10T07:20:54.992Z,8.76
2022-11-10T07:26:15.211Z,8.84
2022-11-10T07:31:35.347Z,8.93
2022-11-10T07:36:55.556Z,9.07
2022-11-10T07:42:15.694Z,9.03
2022-11-10T07:47:35.850Z,9.02
2022-11-10T07:53:03.874Z,9.06
2022-11-10T07:58:24.108Z,9.65
2022-11-10T08:03:44.459Z,9.65
2022-11-10T08:09:04.439Z,9.95
2022-11-10T08:14:24.579Z,9.96
2022-11-10T08:19:44.768Z,9.89
2022-11-10T08:25:05.113Z,10.02
2022-11-10T08:30:25.441Z,10.02
2022-11-10T08:35:46.896Z,9.97
2022-11-10T08:41:06.700Z,10.11
2022-11-10T08:46:26.999Z,10.18
2022-11-10T08:51:47.144Z,10.50
2022-11-10T08:57:07.210Z,10.72
2022-11-10T09:02:27.424Z,11.08
2022-11-10T09:07:49.252Z,11.62
2022-11-10T09:13:11.131Z,11.96
2022-11-10T09:18:31.868Z,11.67
2022-11-10T09:23:51.948Z,11.84
2022-11-10T09:29:12.105Z,12.25
2022-11-10T09:34:31.947Z,11.88
2022-11-10T09:39:52.329Z,11.63
2022-11-10T09:45:21.105Z,11.57
2022-11-10T09:50:47.543Z,11.80
2022-11-10T09:56:14.364Z,12.09
2022-11-10T10:01:37.755Z,12.18
2022-11-10T10:07:11.717Z,11.93
2022-11-10T10:13:03.439Z,11.83
2022-11-10T10:18:31.590Z,11.92
2022-11-10T10:24:09.238Z,12.01
2022-11-10T10:29:39.398Z,12.61
2022-11-10T10:34:59.565Z,12.87
2022-11-10T10:40:22.213Z,12.86
2022-11-10T10:45:42.549Z,12.96
2022-11-10T10:51:03.071Z,12.84
2022-11-10T10:56:31.233Z,12.93
2022-11-10T11:01:56.058Z,13.15
2022-11-10T11:07:24.271Z,13.30
2022-11-10T11:12:44.298Z,13.39
2022-11-10T11:18:11.837Z,13.19
2022-11-10T11:23:54.199Z,13.00
2022-11-10T11:29:14.882Z,12.81
2022-11-10T11:34:37.829Z,12.84
2022-11-10T11:40:12.691Z,12.86
2022-11-10T11:46:03.886Z,12.86
2022-11-10T11:51:40.556Z,12.92
2022-11-10T11:57:27.817Z,12.98
2022-11-10T12:03:21.851Z,12.93
2022-11-10T12:08:44.730Z,12.95
2022-11-10T12:14:25.348Z,13.09
2022-11-10T12:20:14.375Z,13.22
2022-11-10T12:25:49.012Z,13.25
2022-11-10T12:31:21.529Z,13.33
2022-11-10T12:36:42.806Z,13.23
2022-11-10T12:42:05.669Z,13.19
2022-11-10T12:47:31.658Z,13.21
2022-11-10T12:52:57.726Z,13.21
2022-11-10T12:58:18.339Z,13.23
2022-11-10T13:03:40.310Z,13.14
2022-11-10T13:09:00.770Z,13.05
2022-11-10T13:14:29.894Z,13.11
2022-11-10T13:19:51.206Z,13.07
2022-11-10T13:25:36.337Z,13.10
2022-11-10T13:30:56.774Z,13.08
2022-11-10T13:36:46.682Z,13.14
2022-11-10T13:42:09.963Z,13.20
2022-11-10T13:47:57.700Z,13.17
2022-11-10T13:53:23.585Z,13.22
2022-11-10T13:58:44.695Z,13.30
2022-11-10T14:04:05.235Z,13.33
2022-11-10T14:09:39.391Z,13.36
2022-11-10T14:15:19.195Z,13.37
2022-11-10T14:20:45.008Z,13.37
2022-11-10T14:26:12.503Z,13.36
2022-11-10T14:31:36.017Z,13.33
2022-11-10T14:36:59.095Z,13.30
2022-11-10T14:42:23.439Z,13.27
2022-11-10T14:47:43.678Z,13.30
2022-11-10T14:53:07.677Z,13.21
2022-11-10T14:58:37.121Z,13.11
2022-11-10T15:03:57.558Z,13.12
2022-11-10T15:09:30.553Z,13.05
2022-11-10T15:14:59.027Z,13.00
2022-11-10T15:20:37.784Z,12.98
2022-11-10T15:25:57.954Z,12.98
2022-11-10T15:31:29.428Z,12.93
2022-11-10T15:36:52.879Z,12.86
2022-11-10T15:42:21.898Z,12.81
2022-11-10T15:47:42.132Z,12.83
2022-11-10T15:53:06.823Z,12.81
2022-11-10T15:58:27.954Z,12.79
2022-11-10T16:03:47.787Z,12.69
2022-11-10T16:09:07.759Z,12.66
2022-11-10T16:14:27.833Z,12.65
2022-11-10T16:19:47.868Z,12.65
2022-11-10T16:25:11.516Z,12.56
2022-11-10T16:30:35.245Z,12.54
2022-11-10T16:35:56.629Z,12.53
2022-11-10T16:41:16.676Z,12.47
2022-11-10T16:46:37.326Z,12.48
2022-11-10T16:51:57.709Z,12.45
2022-11-10T16:57:17.786Z,12.43
2022-11-10T17:02:39.685Z,12.46
2022-11-10T17:08:00.496Z,12.46
2022-11-10T17:13:20.700Z,12.41
2022-11-10T17:18:41.021Z,12.44
2022-11-10T17:24:02.884Z,12.43
2022-11-10T17:29:29.813Z,12.46
2022-11-10T17:34:49.703Z,12.48
2022-11-10T17:40:19.936Z,12.45
2022-11-10T17:45:40.242Z,12.45
2022-11-10T17:51:00.815Z,12.48
2022-11-10T17:56:21.063Z,12.48
2022-11-10T18:01:41.098Z,12.47
2022-11-10T18:07:01.366Z,12.48
2022-11-10T18:12:26.744Z,12.48
2022-11-10T18:17:47.786Z,12.47
2022-11-10T18:23:11.560Z,12.44
2022-11-10T18:28:31.670Z,12.45
2022-11-10T18:33:53.868Z,12.40
2022-11-10T18:39:13.852Z,12.32
2022-11-10T18:44:36.981Z,12.25
2022-11-10T18:49:57.674Z,12.20
2022-11-10T18:55:19.988Z,12.16
2022-11-10T19:00:40.050Z,12.09
2022-11-10T19:06:00.200Z,11.89
2022-11-10T19:11:20.762Z,11.70
2022-11-10T19:16:40.673Z,11.53
2022-11-10T19:22:01.008Z,11.41
2022-11-10T19:27:21.249Z,11.25
2022-11-10T19:32:41.168Z,11.09
2022-11-10T19:38:01.327Z,10.99
2022-11-10T19:43:21.526Z,11.03
2022-11-10T19:48:43.127Z,11.07
2022-11-10T19:54:04.842Z,11.09
2022-11-10T19:59:25.175Z,11.01
2022-11-10T20:05:03.801Z,10.88
2022-11-10T20:10:24.250Z,10.77
2022-11-10T20:15:44.364Z,10.69
2022-11-10T20:21:05.450Z,10.58
2022-11-10T20:26:25.703Z,10.48
2022-11-10T20:31:46.106Z,10.36
2022-11-10T20:37:06.123Z,10.27
2022-11-10T20:42:26.140Z,10.15
2022-11-10T20:47:46.334Z,10.02
2022-11-10T20:53:06.323Z,10.02
2022-11-10T20:58:26.623Z,9.96
2022-11-10T21:03:46.515Z,9.92
2022-11-10T21:09:07.181Z,9.84
2022-11-10T21:14:27.819Z,9.79
2022-11-10T21:19:48.406Z,9.72
2022-11-10T21:25:08.871Z,9.67
2022-11-10T21:30:29.179Z,9.64
2022-11-10T21:35:49.686Z,9.61
2022-11-10T21:41:09.695Z,9.67
2022-11-10T21:46:29.795Z,9.79
2022-11-10T21:51:49.893Z,9.91
2022-11-10T21:57:10.008Z,10.03
2022-11-10T22:02:30.141Z,10.11
2022-11-10T22:07:50.647Z,10.14
2022-11-10T22:13:38.491Z,10.19
2022-11-10T22:18:58.597Z,10.21
2022-11-10T22:24:24.240Z,10.25
2022-11-10T22:29:44.326Z,10.26
2022-11-10T22:35:04.629Z,10.29
2022-11-10T22:40:43.982Z,10.35
2022-11-10T22:46:04.182Z,10.35
2022-11-10T22:51:26.803Z,10.37
2022-11-10T22:56:48.041Z,10.37
2022-11-10T23:02:08.035Z,10.40
2022-11-10T23:07:28.390Z,10.41
2022-11-10T23:12:48.535Z,10.40
2022-11-10T23:18:08.712Z,10.44
2022-11-10T23:23:31.674Z,10.43
2022-11-10T23:28:53.078Z,10.43
2022-11-10T23:34:13.225Z,10.47
2022-11-10T23:39:33.307Z,10.45
2022-11-10T23:44:53.324Z,10.40
2022-11-10T23:50:13.350Z,10.28
2022-11-10T23:55:33.712Z,10.12
